Time;durP1;ratioP1;P1;durP2;ratioP2;P2;SDS_P1;SDS_P2;PMS_P1;PMS_P2;Temp;Humidity;BMP_temperature;BMP_pressure;BME280_temperature;BME280_humidity;BME280_pressure;Samples;Min_cycle;Max_cycle;Signal;HPM_P1;HPM_P2
2023/07/09 00:02:21;;;;;;;22.15;11.07;;;;;;;22.08;100.00;101526.03;5010127;28;20022;-71
2023/07/09 00:04:46;;;;;;;23.25;11.20;;;;;;;22.00;100.00;101528.09;5012999;28;20030;-68
2023/07/09 00:07:27;;;;;;;21.60;11.90;;;;;;;21.90;100.00;101532.88;5013238;28;20397;-72
2023/07/09 00:09:54;;;;;;;22.70;12.00;;;;;;;21.77;100.00;101532.41;5009790;28;20029;-69
2023/07/09 00:12:19;;;;;;;21.55;10.07;;;;;;;21.80;100.00;101531.41;5012891;28;20033;-71
2023/07/09 00:14:45;;;;;;;23.70;11.25;;;;;;;21.77;100.00;101527.91;5013133;28;20030;-71
2023/07/09 00:17:27;;;;;;;22.33;10.27;;;;;;;21.78;100.00;101534.16;5013177;28;20034;-72
2023/07/09 00:19:52;;;;;;;21.33;10.43;;;;;;;21.68;100.00;101538.06;5010718;28;20113;-72
2023/07/09 00:22:19;;;;;;;22.38;10.95;;;;;;;21.73;100.00;101536.13;5012824;28;20525;-72
2023/07/09 00:24:47;;;;;;;22.70;10.88;;;;;;;21.64;100.00;101536.41;5012765;28;20030;-71
2023/07/09 00:27:14;;;;;;;22.10;11.07;;;;;;;21.59;100.00;101545.47;5009000;28;20045;-62
2023/07/09 00:29:40;;;;;;;23.00;11.77;;;;;;;21.64;100.00;101542.69;5012814;28;20037;-61
2023/07/09 00:32:17;;;;;;;22.90;11.00;;;;;;;21.71;100.00;101538.88;5012673;28;20038;-61
2023/07/09 00:34:48;;;;;;;22.30;10.20;;;;;;;21.74;100.00;101545.94;5009323;28;20389;-61
2023/07/09 00:37:17;;;;;;;21.92;10.77;;;;;;;21.58;100.00;101549.13;5009152;28;20117;-63
2023/07/09 00:39:42;;;;;;;21.23;10.18;;;;;;;21.60;100.00;101551.75;5008908;28;20034;-62
2023/07/09 00:42:17;;;;;;;22.35;11.48;;;;;;;21.46;100.00;101556.66;5012677;28;20025;-70
2023/07/09 00:44:46;;;;;;;22.45;10.88;;;;;;;21.35;100.00;101551.59;5009160;28;20588;-61
2023/07/09 00:47:35;;;;;;;22.33;10.93;;;;;;;21.37;100.00;101549.72;5012603;28;20026;-62
2023/07/09 00:50:09;;;;;;;22.83;11.70;;;;;;;21.22;100.00;101554.63;5010865;28;20107;-61
2023/07/09 00:52:53;;;;;;;22.80;11.20;;;;;;;21.24;100.00;101560.81;5012828;28;20026;-70
2023/07/09 00:55:23;;;;;;;22.08;10.85;;;;;;;21.14;100.00;101550.41;5009403;28;20072;-69
2023/07/09 00:57:55;;;;;;;22.90;11.13;;;;;;;21.19;100.00;101551.16;5012369;28;20026;-61
2023/07/09 01:00:23;;;;;;;22.25;10.70;;;;;;;21.37;100.00;101549.72;5012548;28;20076;-64
2023/07/09 01:02:50;;;;;;;22.42;10.82;;;;;;;21.34;100.00;101549.81;5012427;28;20030;-69
2023/07/09 01:05:19;;;;;;;22.10;11.20;;;;;;;21.37;100.00;101549.72;5012400;28;20022;-61
2023/07/09 01:07:45;;;;;;;21.95;11.05;;;;;;;21.32;100.00;101551.66;5008809;28;20034;-61
2023/07/09 01:10:12;;;;;;;23.08;12.05;;;;;;;21.41;100.00;101552.28;5012572;28;20030;-61
2023/07/09 01:12:37;;;;;;;22.25;11.60;;;;;;;21.37;100.00;101553.28;5012375;28;20034;-62
2023/07/09 01:15:03;;;;;;;22.67;11.38;;;;;;;21.33;100.00;101545.38;5012579;28;20477;-61
2023/07/09 01:17:29;;;;;;;21.20;11.10;;;;;;;21.23;100.00;101545.66;5012439;28;20112;-62
2023/07/09 01:19:56;;;;;;;21.83;11.05;;;;;;;21.25;100.00;101543.78;5012314;28;20565;-61
2023/07/09 01:22:23;;;;;;;24.10;11.18;;;;;;;21.25;100.00;101533.03;5015527;28;20481;-67
2023/07/09 01:24:54;;;;;;;22.35;11.20;;;;;;;21.18;100.00;101549.38;5015881;28;20077;-69
2023/07/09 01:27:23;;;;;;;21.83;11.27;;;;;;;21.18;100.00;101552.94;5015608;28;20143;-62
2023/07/09 01:29:49;;;;;;;22.17;11.10;;;;;;;21.11;100.00;101548.69;5015702;28;20287;-66
2023/07/09 01:32:18;;;;;;;22.77;10.82;;;;;;;21.02;100.00;101549.81;5015932;28;20385;-66
2023/07/09 01:34:44;;;;;;;22.77;11.73;;;;;;;21.00;100.00;101545.41;5011845;28;20026;-64
2023/07/09 01:37:09;;;;;;;23.25;11.95;;;;;;;21.02;100.00;101557.88;5015772;28;20025;-63
2023/07/09 01:39:35;;;;;;;23.10;11.68;;;;;;;20.97;100.00;101561.63;5015776;28;20029;-62
2023/07/09 01:42:01;;;;;;;23.33;12.18;;;;;;;20.96;100.00;101557.19;5015521;28;20108;-68
2023/07/09 01:44:29;;;;;;;24.27;11.95;;;;;;;20.94;100.00;101550.97;5015624;28;20470;-63
2023/07/09 01:46:54;;;;;;;23.35;12.05;;;;;;;20.97;100.00;101550.88;5015572;28;20030;-64
2023/07/09 01:49:20;;;;;;;22.38;11.00;;;;;;;20.95;100.00;101558.09;5015387;28;20030;-64
2023/07/09 01:51:49;;;;;;;20.55;10.50;;;;;;;21.03;100.00;101561.47;5015252;28;20061;-62
2023/07/09 01:54:16;;;;;;;23.33;12.52;;;;;;;20.86;100.00;101568.16;5015446;28;20178;-62
2023/07/09 01:56:41;;;;;;;23.67;12.43;;;;;;;20.71;100.00;101566.78;5015160;28;20026;-66
2023/07/09 01:59:10;;;;;;;22.83;11.93;;;;;;;20.78;100.00;101571.97;5015199;28;20037;-65
2023/07/09 02:01:38;;;;;;;23.52;12.88;;;;;;;20.76;100.00;101571.16;5015352;28;20059;-65
2023/07/09 02:04:03;;;;;;;24.45;11.88;;;;;;;20.58;100.00;101575.19;4997561;28;20029;-66
2023/07/09 02:06:31;;;;;;;21.70;11.82;;;;;;;20.52;100.00;101579.78;5015398;28;20351;-67
2023/07/09 02:08:58;;;;;;;23.02;12.77;;;;;;;20.50;100.00;101575.38;5015221;28;20100;-62
2023/07/09 02:11:23;;;;;;;23.23;12.98;;;;;;;20.62;100.00;101582.22;5014935;28;20022;-63
2023/07/09 02:13:49;;;;;;;23.48;12.20;;;;;;;20.70;100.00;101574.88;5015043;28;20144;-71
2023/07/09 02:16:14;;;;;;;23.65;13.02;;;;;;;20.65;100.00;101579.44;5014967;28;20026;-71
2023/07/09 02:18:39;;;;;;;24.08;13.10;;;;;;;20.48;100.00;101580.78;5014797;28;20110;-68
2023/07/09 02:21:05;;;;;;;23.70;12.57;;;;;;;20.49;100.00;101582.53;5014724;28;20109;-65
2023/07/09 02:23:30;;;;;;;23.27;13.15;;;;;;;20.52;100.00;101577.09;5014856;28;20030;-71
2023/07/09 02:25:55;;;;;;;24.20;13.05;;;;;;;20.49;100.00;101576.28;5014770;28;20037;-72
2023/07/09 02:28:21;;;;;;;22.70;12.80;;;;;;;20.52;100.00;101571.72;5014724;28;20084;-71
2023/07/09 02:30:46;;;;;;;24.38;13.10;;;;;;;20.49;100.00;101574.50;5014596;28;20030;-72
2023/07/09 02:33:11;;;;;;;23.23;13.40;;;;;;;20.49;100.00;101573.59;4996099;28;20030;-71
2023/07/09 02:35:37;;;;;;;23.20;12.98;;;;;;;20.49;100.00;101569.13;5014706;28;20026;-70
2023/07/09 02:38:03;;;;;;;24.50;13.95;;;;;;;20.53;100.00;101570.81;5014358;28;20091;-71
2023/07/09 02:40:29;;;;;;;23.95;13.48;;;;;;;20.46;100.00;101570.97;5014462;28;20030;-71
2023/07/09 02:42:54;;;;;;;23.55;13.27;;;;;;;20.41;100.00;101568.44;5014536;28;20030;-72
2023/07/09 02:45:20;;;;;;;23.60;12.90;;;;;;;20.37;100.00;101572.09;5014321;28;20030;-71
2023/07/09 02:47:45;;;;;;;24.25;13.40;;;;;;;20.36;100.00;101576.59;4996746;28;20030;-71
2023/07/09 02:50:11;;;;;;;24.48;13.60;;;;;;;20.28;100.00;101569.66;5014407;28;20025;-70
2023/07/09 02:52:37;;;;;;;25.17;13.95;;;;;;;20.26;100.00;101571.50;5014212;28;20104;-71
2023/07/09 02:55:02;;;;;;;23.17;13.30;;;;;;;20.14;100.00;101570.88;5014074;28;20033;-71
2023/07/09 02:57:27;;;;;;;23.08;13.10;;;;;;;20.20;100.00;101564.50;5014241;28;20029;-68
2023/07/09 02:59:53;;;;;;;23.80;13.43;;;;;;;20.09;100.00;101575.47;5014104;28;20026;-70
2023/07/09 03:02:18;;;;;;;23.58;13.35;;;;;;;20.13;100.00;101569.09;5014226;28;20030;-70
2023/07/09 03:04:43;;;;;;;24.48;13.20;;;;;;;20.09;100.00;101572.78;5013868;28;20053;-70
2023/07/09 03:07:09;;;;;;;23.88;14.13;;;;;;;20.07;100.00;101574.63;5013929;28;20124;-71
2023/07/09 03:09:34;;;;;;;23.42;13.95;;;;;;;20.16;100.00;101571.72;5014000;28;20488;-64
2023/07/09 03:11:59;;;;;;;23.85;14.18;;;;;;;20.05;100.00;101562.16;5013896;28;20433;-62
2023/07/09 03:14:25;;;;;;;22.98;13.70;;;;;;;20.09;100.00;101567.41;5014002;28;20436;-61
2023/07/09 03:16:50;;;;;;;24.55;14.00;;;;;;;19.99;100.00;101572.13;5013836;28;20479;-62
2023/07/09 03:19:16;;;;;;;24.70;14.23;;;;;;;19.89;100.00;101569.69;5013774;28;20033;-64
2023/07/09 03:21:41;;;;;;;24.65;14.77;;;;;;;19.87;100.00;101566.16;5013599;28;20030;-64
2023/07/09 03:24:07;;;;;;;24.63;13.95;;;;;;;19.87;100.00;101569.72;5013802;28;20032;-67
2023/07/09 03:26:32;;;;;;;23.10;13.43;;;;;;;19.84;100.00;101567.13;5013481;28;20034;-64
2023/07/09 03:28:58;;;;;;;27.10;13.75;;;;;;;19.82;100.00;101574.34;5013478;28;20033;-65
2023/07/09 03:31:23;;;;;;;22.80;13.00;;;;;;;19.82;100.00;101568.97;5013701;28;20041;-62
2023/07/09 03:33:50;;;;;;;24.27;13.65;;;;;;;19.77;100.00;101570.81;4996261;28;20524;-63
2023/07/09 03:36:16;;;;;;;24.33;13.18;;;;;;;19.69;100.00;101566.50;5013413;28;20026;-64
2023/07/09 03:38:41;;;;;;;23.73;13.45;;;;;;;19.65;100.00;101564.81;5013847;28;20036;-64
2023/07/09 03:41:07;;;;;;;22.55;13.50;;;;;;;19.71;100.00;101569.16;5013592;28;20109;-66
2023/07/09 03:43:33;;;;;;;23.58;14.25;;;;;;;19.73;100.00;101569.13;5013338;28;20030;-64
2023/07/09 03:45:58;;;;;;;23.88;13.50;;;;;;;19.71;100.00;101569.16;5013264;28;20470;-62
2023/07/09 03:48:24;;;;;;;24.40;14.10;;;;;;;19.71;100.00;101565.59;5013217;28;20048;-63
2023/07/09 03:50:49;;;;;;;24.15;13.80;;;;;;;19.72;100.00;101561.97;5013381;28;20030;-67
2023/07/09 03:53:16;;;;;;;24.88;14.02;;;;;;;19.74;100.00;101563.72;5013169;28;20026;-63
2023/07/09 03:55:41;;;;;;;24.05;14.57;;;;;;;19.77;100.00;101560.97;5012957;28;20504;-65
2023/07/09 03:58:08;;;;;;;26.02;14.90;;;;;;;19.77;100.00;101566.31;5013225;28;20025;-64
2023/07/09 04:00:34;;;;;;;24.30;13.52;;;;;;;19.74;100.00;101569.09;5013069;28;20022;-62
2023/07/09 04:02:59;;;;;;;23.35;13.43;;;;;;;19.80;100.00;101568.09;5013077;28;20018;-64
2023/07/09 04:05:26;;;;;;;23.58;14.23;;;;;;;19.85;100.00;101572.44;5013114;28;20022;-62
2023/07/09 04:07:51;;;;;;;27.58;15.90;;;;;;;19.85;100.00;101564.41;5012933;28;20054;-67
2023/07/09 04:10:17;;;;;;;25.88;14.65;;;;;;;19.96;100.00;101565.94;5013042;28;20586;-70
2023/07/09 04:12:43;;;;;;;26.25;15.52;;;;;;;19.91;100.00;101562.50;5013063;28;20026;-62
2023/07/09 04:15:09;;;;;;;28.83;16.23;;;;;;;19.87;100.00;101568.84;4995656;28;20381;-63
2023/07/09 04:17:34;;;;;;;29.58;16.52;;;;;;;19.81;100.00;101564.50;5012746;28;20034;-70
2023/07/09 04:19:59;;;;;;;29.33;16.23;;;;;;;19.79;100.00;101569.00;5013073;28;20370;-69
2023/07/09 04:22:25;;;;;;;27.30;15.38;;;;;;;19.79;100.00;101572.59;5012863;28;20119;-61
2023/07/09 04:24:52;;;;;;;24.90;14.95;;;;;;;19.77;100.00;101574.38;5012848;28;20034;-62
2023/07/09 04:27:17;;;;;;;28.42;15.65;;;;;;;19.87;100.00;101576.91;5012826;28;20050;-64
2023/07/09 04:29:43;;;;;;;28.38;15.98;;;;;;;19.97;100.00;101575.78;5012778;28;20030;-67
2023/07/09 04:32:13;;;;;;;26.85;14.90;;;;;;;20.06;100.00;101575.53;5012953;28;20076;-62
2023/07/09 04:34:39;;;;;;;27.90;14.65;;;;;;;20.15;100.00;101575.34;5012927;28;20469;-65
2023/07/09 04:37:07;;;;;;;28.75;15.68;;;;;;;20.29;100.00;101574.13;5012614;28;20040;-70
2023/07/09 04:39:33;;;;;;;29.13;15.75;;;;;;;20.38;100.00;101579.25;5012675;28;20034;-70
2023/07/09 04:41:58;;;;;;;26.92;15.63;;;;;;;20.45;100.00;101569.25;5012929;28;20033;-64
2023/07/09 04:44:24;;;;;;;26.70;15.63;;;;;;;20.47;100.00;101567.38;5012571;28;20432;-66
2023/07/09 04:46:50;;;;;;;28.52;15.77;;;;;;;20.53;100.00;101569.91;5012955;28;20389;-64
2023/07/09 04:49:15;;;;;;;27.63;15.57;;;;;;;20.64;100.00;101570.53;5012934;28;20030;-70
2023/07/09 04:51:41;;;;;;;28.15;16.00;;;;;;;20.66;100.00;101568.72;5012525;28;20094;-65
2023/07/09 04:54:06;;;;;;;26.30;16.05;;;;;;;20.71;100.00;101568.59;5012643;28;20501;-62
2023/07/09 04:56:31;;;;;;;26.85;16.40;;;;;;;20.87;100.00;101577.13;5014539;28;20560;-68
2023/07/09 04:58:57;;;;;;;28.20;16.77;;;;;;;20.96;100.00;101570.63;5016369;28;20080;-62
2023/07/09 05:01:23;;;;;;;24.95;15.77;;;;;;;20.97;100.00;101572.38;5016409;28;20116;-62
2023/07/09 05:03:48;;;;;;;27.10;16.52;;;;;;;20.98;100.00;101572.31;5016300;28;20109;-69
2023/07/09 05:06:14;;;;;;;26.50;16.27;;;;;;;21.14;100.00;101575.47;5016653;28;20473;-70
2023/07/09 05:08:40;;;;;;;27.00;17.90;;;;;;;21.28;100.00;101572.38;5016325;28;20481;-69
2023/07/09 05:11:06;;;;;;;29.23;18.30;;;;;;;21.37;100.00;101579.31;5016116;28;20037;-71
2023/07/09 05:13:31;;;;;;;29.17;18.40;;;;;;;21.44;100.00;101570.13;5015985;28;20022;-68
2023/07/09 05:15:56;;;;;;;26.77;18.23;;;;;;;21.53;100.00;101580.63;4998740;28;20034;-70
2023/07/09 05:18:22;;;;;;;28.98;19.15;;;;;;;21.72;100.00;101572.88;5015929;28;20034;-71
2023/07/09 05:20:47;;;;;;;32.67;20.77;;;;;;;21.81;100.00;101566.34;4998256;28;20060;-71
2023/07/09 05:23:13;;;;;;;31.92;21.73;;;;;;;21.91;100.00;101572.31;4998505;28;20034;-71
2023/07/09 05:25:38;;;;;;;31.88;20.98;;;;;;;21.97;100.00;101568.56;5016047;28;20121;-70
2023/07/09 05:28:05;;;;;;;31.05;22.00;;;;;;;22.03;100.00;101574.66;5015558;28;20054;-61
2023/07/09 05:30:31;;;;;;;31.90;23.10;;;;;;;22.15;100.00;101573.38;5015944;28;20032;-70
2023/07/09 05:32:57;;;;;;;31.92;23.35;;;;;;;22.23;100.00;101568.59;5015667;28;20105;-71
2023/07/09 05:35:26;;;;;;;34.20;23.45;;;;;;;22.32;100.00;101562.03;5015895;28;20032;-72
2023/07/09 05:37:55;;;;;;;32.72;22.88;;;;;;;22.48;100.00;101570.50;5015691;28;20041;-71
2023/07/09 05:40:21;;;;;;;32.42;24.30;;;;;;;22.59;100.00;101571.00;4997948;28;20401;-72
2023/07/09 05:42:48;;;;;;;30.40;22.83;;;;;;;22.75;100.00;101562.41;5015805;28;20079;-71
2023/07/09 05:45:15;;;;;;;31.17;22.65;;;;;;;22.84;100.00;101564.75;5015663;28;20099;-70
2023/07/09 05:47:40;;;;;;;32.88;23.50;;;;;;;22.88;100.00;101566.41;5015417;28;20481;-62
2023/07/09 05:50:06;;;;;;;30.45;22.48;;;;;;;23.04;100.00;101566.75;5015663;28;20030;-63
2023/07/09 05:52:32;;;;;;;30.35;22.33;;;;;;;23.15;100.00;101574.44;5015546;28;20037;-70
2023/07/09 05:54:59;;;;;;;29.95;22.20;;;;;;;23.23;100.00;101577.75;5015165;28;20034;-69
2023/07/09 05:57:24;;;;;;;30.27;21.60;;;;;;;23.30;100.00;101568.50;5015104;28;20053;-61
2023/07/09 05:59:49;;;;;;;30.58;20.65;;;;;;;23.41;100.00;101581.56;5015432;28;20485;-63
2023/07/09 06:02:19;;;;;;;30.98;21.63;;;;;;;23.47;100.00;101575.97;5011407;28;20385;-66
2023/07/09 06:04:45;;;;;;;28.45;20.08;;;;;;;23.56;100.00;101582.81;5015055;28;20165;-61
2023/07/09 06:07:12;;;;;;;29.13;19.88;;;;;;;23.64;100.00;101577.13;5014198;28;20030;-61
2023/07/09 06:09:37;;;;;;;27.13;19.13;;;;;;;23.75;100.00;101579.38;5014819;28;20022;-67
2023/07/09 06:12:03;;;;;;;26.85;17.83;;;;;;;23.84;100.00;101576.34;5015212;28;20032;-69
2023/07/09 06:14:30;;;;;;;26.40;17.98;;;;;;;23.96;100.00;101583.97;5014943;28;20038;-62
2023/07/09 06:16:55;;;;;;;26.23;16.95;;;;;;;24.06;100.00;101579.09;5014806;28;20038;-63
2023/07/09 06:19:20;;;;;;;25.35;14.75;;;;;;;24.17;100.00;101584.03;5015080;28;20469;-62
2023/07/09 06:21:46;;;;;;;24.60;14.15;;;;;;;24.28;100.00;101579.06;5015098;28;20030;-65
2023/07/09 06:24:11;;;;;;;24.60;13.63;;;;;;;24.35;100.00;101591.38;5014780;28;20489;-61
2023/07/09 06:26:37;;;;;;;24.77;13.75;;;;;;;24.46;100.00;101587.34;5014759;28;20484;-61
2023/07/09 06:29:02;;;;;;;23.80;13.90;;;;;;;24.57;100.00;101590.47;5014610;28;20038;-63
2023/07/09 06:31:29;;;;;;;24.92;13.85;;;;;;;24.68;100.00;101592.72;5014851;28;20061;-63
2023/07/09 06:33:55;;;;;;;24.30;13.70;;;;;;;24.75;100.00;101585.25;5014704;28;20548;-65
2023/07/09 06:36:20;;;;;;;24.38;13.48;;;;;;;24.83;100.00;101583.97;5014548;28;20435;-64
2023/07/09 06:38:46;;;;;;;24.35;13.00;;;;;;;24.88;100.00;101581.94;5014424;28;20038;-62
2023/07/09 06:41:12;;;;;;;22.55;11.77;;;;;;;24.98;100.00;101587.81;5014899;28;20458;-61
2023/07/09 06:43:38;;;;;;;22.65;12.10;;;;;;;25.09;100.00;101586.44;5014658;28;20028;-69
2023/07/09 06:46:05;;;;;;;23.23;12.23;;;;;;;25.16;100.00;101585.22;5014240;28;20026;-68
2023/07/09 06:48:31;;;;;;;22.65;11.60;;;;;;;25.24;100.00;101594.75;5014451;28;20026;-67
2023/07/09 06:50:57;;;;;;;22.85;11.25;;;;;;;25.32;100.00;101585.44;5014271;28;20052;-61
2023/07/09 06:53:23;;;;;;;22.55;11.10;;;;;;;25.41;100.00;101582.28;5014175;28;20030;-63
2023/07/09 06:55:49;;;;;;;22.65;11.27;;;;;;;25.52;100.00;101592.63;5014330;28;20058;-61
2023/07/09 06:58:16;;;;;;;22.45;10.43;;;;;;;25.64;100.00;101592.03;5014023;28;20057;-61
2023/07/09 07:00:42;;;;;;;22.13;10.60;;;;;;;25.74;100.00;101595.19;5014070;28;20452;-62
2023/07/09 07:03:09;;;;;;;22.70;10.52;;;;;;;25.82;100.00;101586.69;5014475;28;20053;-69
2023/07/09 07:05:34;;;;;;;21.88;10.55;;;;;;;25.93;100.00;101590.69;5014037;28;20125;-61
2023/07/09 07:08:01;;;;;;;20.83;9.57;;;;;;;26.03;100.00;101595.66;5013834;28;20117;-67
2023/07/09 07:10:26;;;;;;;21.83;9.98;;;;;;;26.14;100.00;101587.00;5014261;28;20021;-71
2023/07/09 07:12:52;;;;;;;20.33;9.38;;;;;;;26.25;100.00;101596.34;5013782;28;20037;-70
2023/07/09 07:15:18;;;;;;;21.23;9.25;;;;;;;26.32;100.00;101594.22;4996345;28;20034;-71
2023/07/09 07:17:43;;;;;;;20.92;8.32;;;;;;;26.44;100.00;101595.44;5013631;28;20030;-71
2023/07/09 07:20:10;;;;;;;20.70;8.57;;;;;;;26.52;100.00;101595.03;5013256;28;20139;-71
2023/07/09 07:22:37;;;;;;;20.38;8.30;;;;;;;26.62;100.00;101601.75;5013877;28;20030;-71
2023/07/09 07:25:03;;;;;;;21.10;8.48;;;;;;;26.70;100.00;101602.25;5013661;28;20054;-71
2023/07/09 07:27:29;;;;;;;22.15;8.70;;;;;;;26.76;100.00;101588.38;5013530;28;20405;-70
2023/07/09 07:29:54;;;;;;;20.50;8.30;;;;;;;26.85;85.00;101605.13;5013777;28;20026;-70
2023/07/09 07:32:20;;;;;;;20.40;8.02;;;;;;;26.88;80.71;101604.97;5013550;28;20041;-71
2023/07/09 07:34:47;;;;;;;20.38;7.80;;;;;;;27.02;84.28;101602.41;5013400;28;20029;-70
2023/07/09 07:37:13;;;;;;;21.17;8.30;;;;;;;27.17;82.40;101605.25;5013511;28;20034;-71
2023/07/09 07:39:38;;;;;;;20.95;8.23;;;;;;;27.19;75.71;101603.31;5013368;28;20071;-71
2023/07/09 07:42:04;;;;;;;20.15;8.18;;;;;;;27.25;77.62;101600.31;5013236;28;20095;-71
2023/07/09 07:44:29;;;;;;;20.27;8.23;;;;;;;27.41;78.88;101589.53;5013423;28;20045;-71
2023/07/09 07:46:54;;;;;;;20.52;8.07;;;;;;;27.51;75.11;101598.00;5013259;28;20042;-71
2023/07/09 07:49:19;;;;;;;19.90;7.60;;;;;;;27.56;74.36;101593.22;5013205;28;20116;-71
2023/07/09 07:51:45;;;;;;;20.67;8.00;;;;;;;27.61;74.93;101602.88;5013417;28;20123;-71
2023/07/09 07:54:10;;;;;;;19.33;7.50;;;;;;;27.57;70.92;101605.84;5013078;28;20029;-68
2023/07/09 07:56:37;;;;;;;20.42;7.40;;;;;;;27.65;74.08;101598.13;5013056;28;20025;-69
2023/07/09 07:59:02;;;;;;;20.35;7.20;;;;;;;27.80;72.59;101594.56;5013293;28;20041;-68
2023/07/09 08:01:28;;;;;;;22.38;7.80;;;;;;;27.81;72.29;101593.59;5013000;28;20026;-69
2023/07/09 08:03:54;;;;;;;20.23;7.65;;;;;;;27.89;71.49;101592.25;5013165;28;20033;-69
2023/07/09 08:06:19;;;;;;;20.55;7.60;;;;;;;27.95;71.45;101592.81;5013260;28;20026;-69
2023/07/09 08:08:45;;;;;;;19.73;7.55;;;;;;;28.08;69.02;101586.72;5012918;28;20129;-69
2023/07/09 08:11:10;;;;;;;19.77;7.95;;;;;;;28.26;70.89;101588.31;5013152;28;20030;-63
2023/07/09 08:13:37;;;;;;;19.73;7.65;;;;;;;28.28;65.59;101593.66;5012876;28;20540;-69
2023/07/09 08:16:03;;;;;;;19.75;7.40;;;;;;;28.21;65.40;101590.47;5012988;28;20033;-68
2023/07/09 08:18:28;;;;;;;19.65;7.13;;;;;;;28.41;64.79;101588.38;5012940;28;20025;-69
2023/07/09 08:20:54;;;;;;;20.42;7.70;;;;;;;28.52;65.78;101589.50;5012744;28;20022;-69
2023/07/09 08:23:19;;;;;;;20.15;7.80;;;;;;;28.68;67.07;101585.91;5012861;28;20505;-61
2023/07/09 08:25:52;;;;;;;20.17;7.72;;;;;;;28.83;66.51;101594.97;5012944;28;20030;-69
2023/07/09 08:28:18;;;;;;;19.75;7.68;;;;;;;28.80;65.28;101593.31;5012541;28;20045;-69
2023/07/09 08:30:43;;;;;;;20.88;7.85;;;;;;;28.78;63.54;101576.22;5013379;28;20026;-69
2023/07/09 08:33:08;;;;;;;19.92;8.00;;;;;;;28.88;65.45;101584.69;5017148;28;20038;-69
2023/07/09 08:35:33;;;;;;;19.30;7.75;;;;;;;29.02;63.80;101586.53;4966776;28;20076;-69
2023/07/09 08:37:59;;;;;;;18.73;7.78;;;;;;;29.10;64.01;101583.38;5016701;28;20041;-70
2023/07/09 08:40:24;;;;;;;20.88;7.63;;;;;;;29.08;63.52;101579.84;5016712;28;20030;-67
2023/07/09 08:42:57;;;;;;;20.02;8.00;;;;;;;29.17;62.64;101582.00;5016692;28;20473;-66
2023/07/09 08:46:01;;;;;;;20.13;7.85;;;;;;;29.38;63.68;101590.69;5016748;28;20385;-61
2023/07/09 08:48:35;;;;;;;21.33;8.35;;;;;;;29.58;62.24;101585.78;5013763;28;20104;-67
2023/07/09 08:51:09;;;;;;;20.60;7.93;;;;;;;29.48;59.57;101590.97;5016470;28;20065;-63
2023/07/09 08:53:44;;;;;;;20.35;8.18;;;;;;;29.44;60.01;101593.00;5016413;28;20469;-67
2023/07/09 08:56:10;;;;;;;19.80;8.35;;;;;;;29.60;59.51;101597.47;5016387;28;20053;-62
2023/07/09 08:58:37;;;;;;;19.80;8.07;;;;;;;29.78;60.74;101592.69;5016480;28;20504;-67
2023/07/09 09:01:12;;;;;;;20.45;8.20;;;;;;;30.01;59.46;101585.75;5016338;28;20037;-65
2023/07/09 09:03:50;;;;;;;20.55;8.27;;;;;;;30.28;59.46;101590.34;5016204;28;20088;-64
2023/07/09 09:06:36;;;;;;;18.23;8.05;;;;;;;30.52;59.79;101572.31;5016210;28;20033;-62
2023/07/09 09:09:21;;;;;;;19.58;8.10;;;;;;;30.48;60.42;101570.81;5013856;28;20034;-62
2023/07/09 09:12:14;;;;;;;20.70;7.80;;;;;;;30.54;56.25;101570.38;5016060;28;20025;-64
2023/07/09 09:14:42;;;;;;;19.85;7.90;;;;;;;30.63;56.10;101568.00;5014964;28;20030;-69
2023/07/09 09:17:14;;;;;;;18.92;7.72;;;;;;;30.92;57.51;101572.28;5016414;28;20061;-63
2023/07/09 09:20:04;;;;;;;19.88;7.60;;;;;;;31.08;57.58;101579.44;5016063;28;20035;-65
2023/07/09 09:22:40;;;;;;;19.50;7.75;;;;;;;31.24;56.20;101573.75;5016353;28;20027;-68
2023/07/09 09:25:14;;;;;;;18.50;7.82;;;;;;;31.31;54.91;101579.63;5015851;28;20033;-67
2023/07/09 09:27:40;;;;;;;19.55;7.72;;;;;;;31.29;53.75;101572.44;4997978;28;20401;-64
2023/07/09 09:30:15;;;;;;;19.73;8.20;;;;;;;31.41;53.69;101575.22;5016022;28;20032;-68
2023/07/09 09:33:01;;;;;;;20.30;8.45;;;;;;;31.80;53.21;101565.13;5015896;28;20038;-66
2023/07/09 09:35:30;;;;;;;20.88;8.07;;;;;;;31.73;52.46;101569.28;4995531;28;20030;-70
2023/07/09 09:37:58;;;;;;;21.08;8.05;;;;;;;31.90;53.12;101557.97;5015770;28;20425;-69
2023/07/09 09:40:25;;;;;;;20.00;7.82;;;;;;;31.93;50.25;101552.28;5015363;28;20026;-69
2023/07/09 09:42:53;;;;;;;20.50;8.00;;;;;;;31.81;51.58;101543.16;5015445;28;20029;-69
2023/07/09 09:45:21;;;;;;;21.25;7.63;;;;;;;31.90;51.56;101549.78;5012112;28;20026;-69
2023/07/09 09:47:48;;;;;;;19.20;7.35;;;;;;;32.05;50.40;101546.88;5015384;28;20029;-69
2023/07/09 09:50:20;;;;;;;18.60;7.10;;;;;;;32.20;49.42;101547.59;5015582;28;20434;-67
2023/07/09 09:52:47;;;;;;;18.35;7.03;;;;;;;32.33;48.47;101540.22;5015465;28;20488;-61
2023/07/09 09:55:29;;;;;;;19.98;7.20;;;;;;;32.53;49.21;101532.31;4997527;28;20500;-62
2023/07/09 09:57:56;;;;;;;20.20;7.88;;;;;;;32.66;47.68;101524.88;5012040;28;20045;-67
2023/07/09 10:00:25;;;;;;;20.88;7.70;;;;;;;32.95;47.54;101530.78;5015471;28;20443;-69
2023/07/09 10:02:56;;;;;;;20.20;7.43;;;;;;;33.27;47.78;101529.22;5015335;28;20030;-66
2023/07/09 10:05:29;;;;;;;19.50;7.90;;;;;;;33.65;47.14;101534.28;5011675;28;20058;-66
2023/07/09 10:07:57;;;;;;;19.25;7.60;;;;;;;34.46;44.89;101531.19;5015151;28;20101;-69
2023/07/09 10:10:28;;;;;;;18.98;7.65;;;;;;;35.71;42.73;101542.09;5015205;28;20037;-62
2023/07/09 10:13:06;;;;;;;19.63;7.63;;;;;;;37.34;39.60;101541.44;5015126;28;20461;-69
2023/07/09 10:15:51;;;;;;;20.15;7.60;;;;;;;39.02;36.96;101540.78;5014887;28;20045;-68
2023/07/09 10:18:27;;;;;;;19.95;7.53;;;;;;;40.34;34.98;101538.50;5015078;28;20030;-69
2023/07/09 10:21:33;;;;;;;20.75;7.90;;;;;;;41.30;33.21;101558.06;5015027;28;20022;-69
2023/07/09 10:24:07;;;;;;;18.40;7.20;;;;;;;41.58;33.40;101569.59;5012438;28;20022;-68
2023/07/09 10:26:44;;;;;;;17.88;7.38;;;;;;;41.23;31.35;101559.81;5014496;28;20108;-63
2023/07/09 10:29:47;;;;;;;19.83;7.53;;;;;;;41.32;31.95;101561.53;5014714;28;20069;-70
2023/07/09 10:32:41;;;;;;;20.10;7.47;;;;;;;42.17;30.40;101573.75;5013987;28;20112;-68
2023/07/09 10:35:27;;;;;;;20.15;7.47;;;;;;;42.95;30.20;101566.16;5014670;28;20105;-69
2023/07/09 10:38:15;;;;;;;18.73;6.97;;;;;;;43.49;28.55;101561.41;5010692;28;20046;-63
2023/07/09 10:40:46;;;;;;;19.75;6.57;;;;;;;43.62;27.13;101560.69;5013859;28;20030;-63
2023/07/09 10:43:18;;;;;;;18.30;6.40;;;;;;;42.42;28.21;101560.56;5014624;28;20041;-68
2023/07/09 10:45:48;;;;;;;17.48;6.22;;;;;;;41.40;29.03;101560.66;5014568;28;20436;-69
2023/07/09 10:48:24;;;;;;;18.98;6.35;;;;;;;42.39;28.30;101558.16;5014347;28;20481;-69
2023/07/09 10:50:52;;;;;;;18.35;6.40;;;;;;;43.25;27.32;101555.06;5014267;28;20466;-62
2023/07/09 10:53:38;;;;;;;15.48;5.60;;;;;;;44.10;26.84;101552.69;5013645;28;20026;-63
2023/07/09 10:56:17;;;;;;;17.73;6.00;;;;;;;43.32;27.63;101550.44;5012440;28;20058;-66
2023/07/09 10:58:54;;;;;;;16.73;5.80;;;;;;;42.50;27.06;101535.50;5014236;28;20026;-62
2023/07/09 11:01:29;;;;;;;16.13;5.70;;;;;;;42.48;28.84;101537.63;5010247;28;20030;-68
2023/07/09 11:03:59;;;;;;;17.35;5.93;;;;;;;42.06;27.49;101533.44;5014013;28;20041;-65
2023/07/09 11:06:46;;;;;;;17.45;5.85;;;;;;;41.73;28.84;101541.94;5014056;28;20117;-62
2023/07/09 11:09:35;;;;;;;19.80;6.10;;;;;;;41.63;29.55;101539.38;5013963;28;20036;-70
2023/07/09 11:12:19;;;;;;;17.95;6.10;;;;;;;41.49;28.91;101542.09;5011649;28;20397;-66
2023/07/09 11:14:53;;;;;;;16.67;6.07;;;;;;;41.29;30.34;101543.34;5013877;28;20027;-66